createdAt,value
2018-06-28T00:00:38.325Z,3.17
2018-06-28T00:03:06.795Z,2.30
2018-06-28T00:05:35.184Z,2.15
2018-06-28T00:08:03.599Z,2.10
2018-06-28T00:10:31.932Z,2.55
2018-06-28T00:13:00.300Z,2.47
2018-06-28T00:15:28.694Z,2.20
2018-06-28T00:17:57.055Z,2.27
2018-06-28T00:20:25.402Z,2.40
2018-06-28T00:22:53.738Z,4.60
2018-06-28T00:25:22.106Z,16.93
2018-06-28T00:27:50.453Z,14.58
2018-06-28T00:30:18.781Z,9.17
2018-06-28T00:32:47.128Z,4.72
2018-06-28T00:35:15.720Z,4.65
2018-06-28T00:37:44.061Z,3.23
2018-06-28T00:40:12.405Z,3.43
2018-06-28T00:42:40.742Z,2.30
2018-06-28T00:45:09.224Z,2.47
2018-06-28T00:47:37.561Z,2.13
2018-06-28T00:50:05.980Z,2.00
2018-06-28T00:52:34.393Z,2.10
2018-06-28T00:55:02.798Z,2.23
2018-06-28T00:57:31.198Z,2.83
2018-06-28T00:59:59.526Z,2.90
2018-06-28T01:02:27.871Z,2.67
2018-06-28T01:04:56.215Z,2.60
2018-06-28T01:07:24.645Z,2.40
2018-06-28T01:09:53.290Z,3.23
2018-06-28T01:12:21.697Z,3.13
2018-06-28T01:14:50.558Z,3.03
2018-06-28T01:17:18.929Z,3.60
2018-06-28T01:19:47.302Z,6.47
2018-06-28T01:22:15.754Z,6.07
2018-06-28T01:24:44.200Z,3.80
2018-06-28T01:27:12.613Z,3.17
2018-06-28T01:29:41.030Z,3.40
2018-06-28T01:32:09.414Z,2.90
2018-06-28T01:34:37.473Z,2.33
2018-06-28T01:37:06.025Z,2.40
2018-06-28T01:39:34.393Z,2.40
2018-06-28T01:42:14.250Z,2.13
2018-06-28T01:44:42.654Z,2.20
2018-06-28T01:47:11.022Z,2.40
2018-06-28T01:49:39.410Z,2.40
2018-06-28T01:52:07.725Z,2.20
2018-06-28T01:54:36.062Z,2.50
2018-06-28T01:57:04.402Z,2.07
2018-06-28T01:59:32.739Z,2.47
2018-06-28T02:02:01.111Z,2.70
2018-06-28T02:04:29.479Z,2.40
2018-06-28T02:06:57.889Z,2.20
2018-06-28T02:09:26.227Z,2.17
2018-06-28T02:11:54.549Z,2.10
2018-06-28T02:14:23.609Z,2.60
2018-06-28T02:16:52.393Z,2.40
2018-06-28T02:19:20.768Z,2.40
2018-06-28T02:21:49.122Z,2.50
2018-06-28T02:24:17.736Z,2.10
2018-06-28T02:26:46.063Z,2.63
2018-06-28T02:29:14.462Z,3.00
2018-06-28T02:31:42.785Z,3.03
2018-06-28T02:34:11.140Z,3.30
2018-06-28T02:36:39.484Z,3.67
2018-06-28T02:39:08.438Z,3.90
2018-06-28T02:41:36.758Z,4.03
2018-06-28T02:44:05.116Z,3.77
2018-06-28T02:46:33.658Z,4.67
2018-06-28T02:49:01.998Z,4.50
2018-06-28T02:51:30.331Z,4.70
2018-06-28T02:53:58.682Z,3.90
2018-06-28T02:56:26.997Z,4.00
2018-06-28T02:58:55.470Z,4.00
2018-06-28T03:01:23.809Z,3.90
2018-06-28T03:03:52.146Z,3.87
2018-06-28T03:06:20.496Z,4.27
2018-06-28T03:08:48.838Z,4.57
2018-06-28T03:11:17.151Z,4.30
2018-06-28T03:13:45.536Z,4.60
2018-06-28T03:16:13.905Z,4.50
2018-06-28T03:18:42.262Z,4.10
2018-06-28T03:21:10.599Z,3.53
2018-06-28T03:23:38.945Z,3.63
2018-06-28T03:26:07.378Z,3.27
2018-06-28T03:28:35.794Z,3.43
2018-06-28T03:31:04.272Z,3.93
2018-06-28T03:33:32.498Z,3.77
2018-06-28T03:36:00.910Z,3.60
2018-06-28T03:38:29.666Z,3.10
2018-06-28T03:40:58.133Z,3.17
2018-06-28T03:43:26.455Z,4.00
2018-06-28T03:45:54.814Z,3.77
2018-06-28T03:48:23.135Z,3.90
2018-06-28T03:50:51.493Z,3.73
2018-06-28T03:53:19.839Z,3.47
2018-06-28T03:55:48.230Z,3.97
2018-06-28T03:58:16.597Z,3.90
2018-06-28T04:00:44.938Z,4.07
2018-06-28T04:03:13.280Z,3.97
2018-06-28T04:05:41.366Z,3.93
2018-06-28T04:08:09.682Z,3.60
2018-06-28T04:10:38.018Z,3.77
2018-06-28T04:13:06.451Z,4.13
2018-06-28T04:15:34.767Z,4.10
2018-06-28T04:18:03.066Z,3.43
2018-06-28T04:20:31.441Z,3.87
2018-06-28T04:22:59.746Z,3.60
2018-06-28T04:25:28.071Z,4.03
2018-06-28T04:27:56.362Z,4.00
2018-06-28T04:30:24.429Z,4.47
2018-06-28T04:32:52.738Z,4.13
2018-06-28T04:35:21.074Z,4.40
2018-06-28T04:37:49.413Z,4.50
2018-06-28T04:40:17.743Z,4.07
2018-06-28T04:42:46.034Z,4.40
2018-06-28T04:45:14.356Z,4.60
2018-06-28T04:47:42.670Z,4.23
2018-06-28T04:50:10.990Z,4.07
2018-06-28T04:52:39.017Z,3.90
2018-06-28T04:55:07.338Z,3.90
2018-06-28T04:57:35.665Z,3.70
2018-06-28T05:00:04.086Z,3.77
2018-06-28T05:02:32.871Z,3.63
2018-06-28T05:05:01.241Z,4.37
2018-06-28T05:07:29.610Z,4.40
2018-06-28T05:09:58.110Z,4.33
2018-06-28T05:12:26.443Z,4.27
2018-06-28T05:14:55.239Z,3.97
2018-06-28T05:17:23.742Z,3.67
2018-06-28T05:19:52.211Z,4.33
2018-06-28T05:22:21.101Z,3.77
2018-06-28T05:24:49.206Z,3.60
2018-06-28T05:27:17.613Z,3.80
2018-06-28T05:29:46.034Z,2.97
2018-06-28T05:32:14.405Z,3.40
2018-06-28T05:34:42.885Z,2.87
2018-06-28T05:37:11.162Z,3.30
2018-06-28T05:39:39.679Z,2.70
2018-06-28T05:42:08.074Z,3.20
2018-06-28T05:44:36.545Z,2.90
2018-06-28T05:47:05.031Z,3.23
2018-06-28T05:49:33.466Z,3.47
2018-06-28T05:52:01.855Z,3.02
2018-06-28T05:54:30.277Z,3.12
2018-06-28T05:56:58.668Z,3.20
2018-06-28T05:59:27.070Z,3.30
2018-06-28T06:01:55.603Z,2.85
2018-06-28T06:04:24.024Z,2.87
2018-06-28T06:06:52.476Z,3.20
2018-06-28T06:09:20.809Z,2.83
2018-06-28T06:11:49.260Z,2.75
2018-06-28T06:14:18.074Z,3.22
2018-06-28T06:16:46.427Z,2.90
2018-06-28T06:19:14.754Z,3.40
2018-06-28T06:21:43.072Z,3.27
2018-06-28T06:24:11.461Z,3.05
2018-06-28T06:26:39.859Z,3.12
2018-06-28T06:29:08.299Z,2.72
2018-06-28T06:31:37.389Z,3.20
2018-06-28T06:34:05.489Z,2.80
2018-06-28T06:36:33.813Z,2.60
2018-06-28T06:39:02.317Z,3.00
2018-06-28T06:41:30.634Z,2.85
2018-06-28T06:43:59.246Z,2.95
2018-06-28T06:46:27.567Z,2.60
2018-06-28T06:48:56.185Z,2.85
2018-06-28T06:51:24.554Z,3.10
2018-06-28T06:53:52.886Z,3.30
2018-06-28T06:56:21.297Z,3.27
2018-06-28T06:58:49.703Z,2.70
2018-06-28T07:01:18.078Z,2.75
2018-06-28T07:03:47.364Z,2.77
2018-06-28T07:06:15.950Z,3.10
2018-06-28T07:08:44.884Z,2.85
2018-06-28T07:11:13.685Z,2.80
2018-06-28T07:13:42.366Z,3.55
2018-06-28T07:16:10.728Z,3.00
2018-06-28T07:18:39.058Z,2.58
2018-06-28T07:21:07.455Z,3.00
2018-06-28T07:23:35.834Z,3.10
2018-06-28T07:26:04.383Z,2.98
2018-06-28T07:28:32.828Z,2.72
2018-06-28T07:31:01.238Z,3.10
2018-06-28T07:33:29.600Z,2.80
2018-06-28T07:35:57.946Z,2.62
2018-06-28T07:38:26.319Z,2.95
2018-06-28T07:40:54.361Z,3.00
2018-06-28T07:43:23.294Z,3.00
2018-06-28T07:45:51.717Z,3.10
2018-06-28T07:48:20.083Z,3.35
2018-06-28T07:50:48.470Z,3.33
2018-06-28T07:53:18.454Z,3.08
2018-06-28T07:55:47.485Z,3.08
2018-06-28T07:58:15.858Z,3.20
2018-06-28T08:00:44.677Z,3.10
2018-06-28T08:03:13.503Z,3.05
2018-06-28T08:05:42.242Z,2.83
2018-06-28T08:08:10.738Z,2.95
2018-06-28T08:10:39.162Z,2.77
2018-06-28T08:13:08.666Z,3.15
2018-06-28T08:15:37.256Z,3.02
2018-06-28T08:18:07.530Z,2.77
2018-06-28T08:20:36.261Z,2.70
2018-06-28T08:23:06.307Z,2.40
2018-06-28T08:25:34.898Z,3.20
2018-06-28T08:28:03.964Z,2.75
2018-06-28T08:30:32.666Z,3.30
2018-06-28T08:33:01.093Z,3.05
2018-06-28T08:35:29.672Z,3.08
2018-06-28T08:37:58.257Z,2.92
2018-06-28T08:40:26.867Z,3.37
2018-06-28T08:42:55.271Z,3.47
2018-06-28T08:45:23.662Z,3.60
2018-06-28T08:47:52.046Z,3.00
2018-06-28T08:50:20.552Z,3.30
2018-06-28T08:52:49.070Z,3.60
2018-06-28T08:55:18.766Z,3.37
2018-06-28T08:57:47.287Z,3.33
2018-06-28T09:00:15.817Z,4.30
2018-06-28T09:02:44.287Z,3.02
2018-06-28T09:05:12.908Z,3.52
2018-06-28T09:07:41.291Z,2.80
2018-06-28T09:10:09.757Z,2.83
2018-06-28T09:12:38.165Z,3.70
2018-06-28T09:15:06.738Z,3.67
2018-06-28T09:17:35.375Z,3.92
2018-06-28T09:20:03.918Z,3.40
2018-06-28T09:22:32.416Z,3.10
2018-06-28T09:25:02.486Z,3.65
2018-06-28T09:27:31.273Z,4.10
2018-06-28T09:29:59.735Z,6.15
2018-06-28T09:32:28.230Z,6.47
2018-06-28T09:34:56.662Z,3.87
2018-06-28T09:37:25.034Z,3.77
2018-06-28T09:39:53.394Z,3.45
2018-06-28T09:42:21.796Z,3.40
2018-06-28T09:44:50.178Z,3.40
2018-06-28T09:47:18.605Z,3.72
2018-06-28T09:49:47.055Z,4.42
2018-06-28T09:52:15.410Z,4.00
2018-06-28T09:54:43.814Z,5.40
2018-06-28T09:57:12.201Z,5.55
2018-06-28T09:59:40.999Z,3.25
2018-06-28T10:02:09.374Z,2.90
2018-06-28T10:04:37.899Z,3.12
2018-06-28T10:07:06.865Z,3.45
2018-06-28T10:09:35.243Z,4.10
2018-06-28T10:12:03.602Z,4.03
2018-06-28T10:14:32.210Z,4.20
2018-06-28T10:17:00.553Z,3.55
2018-06-28T10:19:28.955Z,3.92
2018-06-28T10:21:57.395Z,2.75
2018-06-28T10:24:25.885Z,2.95
2018-06-28T10:26:54.206Z,2.65
2018-06-28T10:29:22.642Z,3.05
2018-06-28T10:31:51.021Z,4.97
2018-06-28T10:34:19.430Z,4.05
2018-06-28T10:36:47.894Z,5.70
2018-06-28T10:39:16.294Z,4.37
2018-06-28T10:41:44.755Z,3.50
2018-06-28T10:44:13.093Z,3.40
2018-06-28T10:46:41.189Z,3.33
2018-06-28T10:49:09.583Z,3.62
2018-06-28T10:51:37.970Z,2.55
2018-06-28T10:54:06.421Z,4.53
2018-06-28T10:56:34.776Z,2.72
2018-06-28T10:59:03.141Z,3.80
2018-06-28T11:01:31.258Z,5.33
2018-06-28T11:03:59.592Z,4.75
2018-06-28T11:06:28.002Z,11.95
2018-06-28T11:08:56.362Z,2.72
2018-06-28T11:11:24.875Z,6.47
2018-06-28T11:13:53.201Z,6.12
2018-06-28T11:16:21.711Z,7.40
2018-06-28T11:18:50.371Z,2.95
2018-06-28T11:21:18.802Z,4.25
2018-06-28T11:23:47.159Z,3.83
2018-06-28T11:26:15.303Z,5.17
2018-06-28T11:28:43.682Z,3.60
2018-06-28T11:31:12.101Z,5.50
2018-06-28T11:33:40.434Z,3.62
2018-06-28T11:36:08.828Z,3.12
2018-06-28T11:38:37.242Z,3.72
2018-06-28T11:41:05.933Z,4.30
2018-06-28T11:43:34.594Z,4.75
2018-06-28T11:46:02.993Z,2.90
2018-06-28T11:48:31.410Z,1.90
2018-06-28T11:50:59.789Z,2.50
2018-06-28T11:53:28.187Z,2.42
2018-06-28T11:55:56.926Z,3.65
2018-06-28T11:58:25.892Z,4.03
2018-06-28T12:00:54.314Z,5.00
2018-06-28T12:03:22.837Z,7.35
2018-06-28T12:05:51.300Z,3.62
2018-06-28T12:08:19.915Z,6.90
2018-06-28T12:10:49.509Z,3.72
2018-06-28T12:13:18.867Z,3.62
2018-06-28T12:15:47.300Z,3.55
2018-06-28T12:18:15.782Z,9.98
2018-06-28T12:20:44.533Z,2.90
2018-06-28T12:23:13.392Z,2.22
2018-06-28T12:25:42.271Z,5.55
2018-06-28T12:28:10.835Z,2.80
2018-06-28T12:30:40.362Z,3.20
2018-06-28T12:33:10.260Z,3.20
2018-06-28T12:35:38.903Z,3.50
2018-06-28T12:38:07.890Z,4.20
2018-06-28T12:40:37.534Z,4.83
2018-06-28T12:43:05.931Z,4.35
2018-06-28T12:45:34.772Z,3.35
2018-06-28T12:48:10.243Z,3.30
2018-06-28T12:50:38.618Z,4.65
2018-06-28T12:53:10.173Z,5.47
2018-06-28T12:56:46.241Z,10.63
2018-06-28T12:59:16.284Z,8.23
2018-06-28T13:01:45.497Z,7.50
2018-06-28T13:04:14.144Z,3.20
2018-06-28T13:06:42.624Z,3.67
2018-06-28T13:09:14.216Z,6.62
2018-06-28T13:11:43.839Z,5.42
2018-06-28T13:14:12.315Z,3.37
2018-06-28T13:16:41.631Z,2.25
2018-06-28T13:19:10.134Z,2.27
2018-06-28T13:21:38.511Z,5.67
2018-06-28T13:24:07.000Z,1.85
2018-06-28T13:26:35.516Z,2.02
2018-06-28T13:29:04.062Z,10.70
2018-06-28T13:31:32.649Z,16.82
2018-06-28T13:34:01.095Z,5.17
2018-06-28T13:36:29.479Z,2.40
2018-06-28T13:38:57.910Z,1.95
2018-06-28T13:41:26.517Z,2.20
2018-06-28T13:43:54.755Z,1.67
2018-06-28T13:46:23.278Z,1.40
2018-06-28T13:48:51.555Z,1.80
2018-06-28T13:51:20.031Z,3.58
2018-06-28T13:53:48.415Z,2.52
2018-06-28T13:56:16.884Z,6.10
2018-06-28T13:58:45.262Z,7.58
2018-06-28T14:01:13.631Z,11.10
2018-06-28T14:03:42.006Z,5.58
2018-06-28T14:06:10.430Z,3.95
2018-06-28T14:08:38.769Z,5.25
2018-06-28T14:11:07.151Z,9.68
2018-06-28T14:13:35.488Z,8.23
2018-06-28T14:16:03.871Z,7.12
2018-06-28T14:18:32.274Z,5.80
2018-06-28T14:21:00.792Z,7.95
2018-06-28T14:23:29.140Z,7.45
2018-06-28T14:25:57.548Z,5.33
2018-06-28T14:28:25.894Z,5.95
2018-06-28T14:30:54.358Z,19.27
2018-06-28T14:33:22.719Z,4.58
2018-06-28T14:35:50.753Z,8.50
2018-06-28T14:38:19.101Z,9.23
2018-06-28T14:40:47.454Z,13.83
2018-06-28T14:43:15.825Z,7.28
2018-06-28T14:45:44.208Z,7.65
2018-06-28T14:48:12.591Z,4.90
2018-06-28T14:50:43.943Z,8.15
2018-06-28T14:53:12.478Z,4.92
2018-06-28T14:55:40.864Z,5.10
2018-06-28T14:58:09.220Z,3.47
2018-06-28T15:00:37.593Z,7.47
2018-06-28T15:03:05.953Z,3.42
2018-06-28T15:05:34.320Z,10.08
2018-06-28T15:08:02.804Z,7.60
2018-06-28T15:10:31.178Z,4.40
2018-06-28T15:12:59.518Z,4.00
2018-06-28T15:15:27.974Z,5.10
2018-06-28T15:17:56.355Z,5.25
2018-06-28T15:20:24.764Z,5.65
2018-06-28T15:22:53.341Z,6.37
2018-06-28T15:25:21.780Z,5.33
2018-06-28T15:27:50.311Z,7.17
2018-06-28T15:30:18.641Z,10.00
2018-06-28T15:32:46.989Z,5.65
2018-06-28T15:35:15.105Z,5.97
2018-06-28T15:37:43.673Z,5.97
2018-06-28T15:40:12.081Z,4.10
2018-06-28T15:42:40.494Z,6.90
2018-06-28T15:45:08.971Z,4.72
2018-06-28T15:47:37.382Z,6.40
2018-06-28T15:50:05.859Z,3.98
2018-06-28T15:52:34.259Z,5.58
2018-06-28T15:55:02.749Z,13.40
2018-06-28T15:57:31.128Z,13.80
2018-06-28T15:59:59.510Z,17.48
2018-06-28T16:02:27.573Z,10.20
2018-06-28T16:04:56.049Z,6.28
2018-06-28T16:07:24.440Z,7.72
2018-06-28T16:09:52.882Z,2.83
2018-06-28T16:12:21.269Z,3.47
2018-06-28T16:14:49.631Z,5.10
2018-06-28T16:17:17.959Z,10.05
2018-06-28T16:19:46.314Z,5.80
2018-06-28T16:22:14.667Z,6.80
2018-06-28T16:24:43.133Z,3.37
2018-06-28T16:27:11.771Z,5.33
2018-06-28T16:29:40.272Z,20.48
2018-06-28T16:32:08.639Z,5.22
2018-06-28T16:34:37.098Z,5.78
2018-06-28T16:37:05.668Z,11.48
2018-06-28T16:39:34.099Z,8.50
2018-06-28T16:42:02.527Z,4.85
2018-06-28T16:44:30.872Z,5.30
2018-06-28T16:46:59.404Z,17.37
2018-06-28T16:49:27.770Z,10.80
2018-06-28T16:51:56.143Z,13.75
2018-06-28T16:54:24.494Z,9.20
2018-06-28T16:56:53.016Z,16.52
2018-06-28T16:59:21.425Z,6.60
2018-06-28T17:01:49.746Z,3.98
2018-06-28T17:04:18.093Z,25.50
2018-06-28T17:06:46.311Z,20.27
2018-06-28T17:09:14.653Z,12.58
2018-06-28T17:11:43.052Z,9.78
2018-06-28T17:14:11.393Z,8.50
2018-06-28T17:16:39.877Z,15.70
2018-06-28T17:19:08.369Z,16.60
2018-06-28T17:21:36.787Z,13.75
2018-06-28T17:24:05.608Z,15.95
2018-06-28T17:26:33.978Z,17.30
2018-06-28T17:29:02.439Z,14.73
2018-06-28T17:31:30.789Z,16.48
2018-06-28T17:33:59.155Z,14.33
2018-06-28T17:36:27.581Z,8.15
2018-06-28T17:38:56.163Z,6.55
2018-06-28T17:41:24.587Z,10.63
2018-06-28T17:43:52.991Z,9.05
2018-06-28T17:46:21.413Z,11.73
2018-06-28T17:48:49.743Z,7.80
2018-06-28T17:51:18.185Z,13.95
2018-06-28T17:53:46.567Z,13.03
2018-06-28T17:56:15.082Z,36.70
2018-06-28T17:58:43.470Z,38.42
2018-06-28T18:01:13.306Z,16.77
2018-06-28T18:03:41.750Z,9.68
2018-06-28T18:06:10.097Z,11.03
2018-06-28T18:08:38.776Z,25.70
2018-06-28T18:11:07.520Z,19.57
2018-06-28T18:13:35.955Z,9.80
2018-06-28T18:16:04.394Z,6.03
2018-06-28T18:18:32.814Z,6.60
2018-06-28T18:21:01.214Z,3.35
2018-06-28T18:23:30.050Z,3.62
2018-06-28T18:25:58.618Z,3.58
2018-06-28T18:28:27.037Z,4.33
2018-06-28T18:30:55.386Z,3.95
2018-06-28T18:33:23.838Z,4.08
2018-06-28T18:35:52.764Z,3.95
2018-06-28T18:38:21.263Z,4.47
2018-06-28T18:40:49.730Z,4.08
2018-06-28T18:43:18.191Z,3.90
2018-06-28T18:45:47.028Z,4.03
2018-06-28T18:48:15.663Z,3.60
2018-06-28T18:50:44.130Z,3.70
2018-06-28T18:53:12.460Z,3.60
2018-06-28T18:55:40.786Z,3.47
2018-06-28T18:58:09.306Z,4.20
2018-06-28T19:00:37.760Z,3.92
2018-06-28T19:03:06.223Z,3.92
2018-06-28T19:05:34.625Z,3.92
2018-06-28T19:08:03.179Z,3.90
2018-06-28T19:10:37.097Z,3.62
2018-06-28T19:13:05.521Z,3.60
2018-06-28T19:15:39.426Z,3.72
2018-06-28T19:18:08.019Z,4.05
2018-06-28T19:20:36.468Z,3.90
2018-06-28T19:23:10.298Z,3.83
2018-06-28T19:25:38.852Z,3.70
2018-06-28T19:28:07.495Z,4.20
2018-06-28T19:30:41.421Z,3.80
2018-06-28T19:33:09.788Z,4.20
2018-06-28T19:35:38.191Z,3.67
2018-06-28T19:38:06.690Z,3.90
2018-06-28T19:40:40.592Z,3.55
2018-06-28T19:43:09.842Z,3.62
2018-06-28T19:45:38.224Z,3.65
2018-06-28T19:48:06.641Z,4.00
2018-06-28T19:50:40.341Z,4.95
2018-06-28T19:53:14.502Z,5.22
2018-06-28T19:55:43.030Z,4.95
2018-06-28T19:58:11.454Z,3.98
2018-06-28T20:00:45.142Z,3.98
2018-06-28T20:03:18.859Z,3.77
2018-06-28T20:05:47.525Z,3.45
2018-06-28T20:08:16.004Z,4.17
2018-06-28T20:10:44.415Z,3.67
2018-06-28T20:13:18.263Z,3.92
2018-06-28T20:15:57.526Z,3.65
2018-06-28T20:18:31.093Z,3.87
2018-06-28T20:21:00.944Z,3.98
2018-06-28T20:23:29.302Z,4.00
2018-06-28T20:25:57.662Z,3.70
2018-06-28T20:28:31.853Z,3.77
2018-06-28T20:36:02.215Z,4.08
2018-06-28T20:38:30.979Z,3.55
2018-06-28T20:40:59.654Z,3.98
2018-06-28T20:43:28.758Z,3.52
2018-06-28T20:45:57.158Z,3.62
2018-06-28T20:48:25.506Z,4.05
2018-06-28T20:50:53.919Z,3.70
2018-06-28T20:53:22.410Z,3.67
2018-06-28T20:55:50.619Z,3.55
2018-06-28T20:58:18.953Z,4.05
2018-06-28T21:00:47.337Z,3.80
2018-06-28T21:03:15.698Z,3.98
2018-06-28T21:05:44.067Z,4.10
2018-06-28T21:08:12.429Z,4.08
2018-06-28T21:10:40.787Z,4.00
2018-06-28T21:13:09.119Z,4.60
2018-06-28T21:59:19.647Z,4.22
2018-06-28T22:01:53.791Z,4.50
2018-06-28T22:04:22.158Z,3.67
2018-06-28T22:06:51.461Z,4.62
2018-06-28T22:09:20.842Z,4.35
2018-06-28T22:11:49.342Z,4.37
2018-06-28T22:14:18.010Z,4.30
2018-06-28T22:16:46.308Z,4.42
2018-06-28T22:19:14.646Z,4.42
2018-06-28T22:21:44.161Z,4.45
2018-06-28T22:24:12.462Z,4.50
2018-06-28T22:26:40.802Z,4.70
2018-06-28T22:29:09.168Z,4.60
2018-06-28T22:31:37.522Z,4.53
2018-06-28T22:34:06.313Z,4.53
2018-06-28T22:36:34.636Z,4.50
2018-06-28T22:41:36.627Z,4.60
2018-06-28T22:44:05.156Z,4.20
2018-06-28T22:46:36.027Z,4.30
2018-06-28T22:49:04.834Z,3.92
2018-06-28T22:51:33.338Z,4.10
2018-06-28T22:54:04.093Z,3.65
2018-06-28T22:56:34.759Z,3.10
2018-06-28T22:59:04.863Z,3.62
2018-06-28T23:01:33.294Z,3.37
2018-06-28T23:04:01.635Z,3.50
2018-06-28T23:06:29.994Z,3.17
2018-06-28T23:08:58.315Z,3.17
2018-06-28T23:11:26.673Z,4.92
2018-06-28T23:13:55.053Z,5.15
2018-06-28T23:16:23.402Z,6.75
2018-06-28T23:18:51.773Z,6.10
2018-06-28T23:21:20.118Z,4.80
2018-06-28T23:23:48.449Z,5.05
2018-06-28T23:26:16.784Z,4.80
2018-06-28T23:28:45.122Z,4.85
2018-06-28T23:31:13.482Z,6.37
2018-06-28T23:33:41.879Z,8.45
2018-06-28T23:36:10.207Z,8.88
2018-06-28T23:38:38.566Z,7.78
2018-06-28T23:41:06.984Z,6.08
2018-06-28T23:43:35.323Z,7.50
2018-06-28T23:46:03.882Z,14.40
2018-06-28T23:48:32.222Z,12.95
2018-06-28T23:51:00.543Z,9.15
2018-06-28T23:53:28.861Z,8.03
2018-06-28T23:55:57.194Z,6.00
2018-06-28T23:58:25.547Z,8.60
